createdAt,value
2022-08-17T00:01:51.560Z,29.83
2022-08-17T00:04:19.750Z,33.85
2022-08-17T00:06:49.098Z,31.52
2022-08-17T00:09:18.851Z,31.80
2022-08-17T00:12:44.420Z,29.55
2022-08-17T00:14:36.046Z,33.73
2022-08-17T00:17:04.654Z,31.00
2022-08-17T00:19:32.620Z,32.60
2022-08-17T00:22:31.395Z,28.45
2022-08-17T00:24:49.387Z,33.47
2022-08-17T00:27:15.841Z,30.63
2022-08-17T00:29:42.320Z,32.75
2022-08-17T00:33:12.651Z,33.08
2022-08-17T00:34:55.399Z,33.28
2022-08-17T00:37:21.869Z,33.05
2022-08-17T00:39:48.394Z,29.93
2022-08-17T00:42:18.440Z,30.65
2022-08-17T00:44:45.707Z,29.45
2022-08-17T00:47:12.177Z,30.02
2022-08-17T00:49:38.651Z,29.42
2022-08-17T00:52:15.341Z,28.87
2022-08-17T00:54:44.852Z,29.25
2022-08-17T00:57:21.108Z,25.55
2022-08-17T01:00:02.449Z,30.75
2022-08-17T01:02:34.978Z,29.80
2022-08-17T01:05:16.351Z,27.30
2022-08-17T01:07:47.251Z,25.48
2022-08-17T01:10:58.843Z,25.98
2022-08-17T01:13:02.630Z,25.67
2022-08-17T01:15:31.222Z,24.70
2022-08-17T01:17:57.828Z,24.60
2022-08-17T01:20:24.325Z,25.02
2022-08-17T01:22:50.969Z,23.67
2022-08-17T01:25:18.576Z,25.27
2022-08-17T01:27:45.036Z,24.10
2022-08-17T01:30:58.401Z,21.87
2022-08-17T01:32:59.235Z,23.20
2022-08-17T01:35:25.717Z,20.73
2022-08-17T01:37:52.500Z,25.02
2022-08-17T01:40:39.111Z,24.42
2022-08-17T01:43:14.435Z,22.73
2022-08-17T01:45:45.387Z,23.98
2022-08-17T01:48:13.337Z,26.98
2022-08-17T01:50:42.336Z,26.88
2022-08-17T01:53:18.199Z,23.05
2022-08-17T01:55:51.447Z,24.77
2022-08-17T01:58:19.173Z,25.17
2022-08-17T02:01:01.267Z,27.40
2022-08-17T02:03:28.928Z,25.85
2022-08-17T02:05:55.438Z,28.85
2022-08-17T02:08:39.164Z,30.00
2022-08-17T02:11:17.244Z,26.98
2022-08-17T02:13:45.540Z,29.40
2022-08-17T02:16:13.038Z,28.15
2022-08-17T02:18:39.663Z,28.00
2022-08-17T02:21:07.002Z,28.40
2022-08-17T02:23:38.980Z,28.65
2022-08-17T02:26:05.655Z,30.20
2022-08-17T02:28:32.538Z,28.20
2022-08-17T02:31:09.050Z,27.23
2022-08-17T02:33:42.070Z,27.40
2022-08-17T02:36:11.811Z,26.45
2022-08-17T02:38:39.770Z,24.75
2022-08-17T02:41:06.553Z,24.63
2022-08-17T02:43:33.085Z,35.92
2022-08-17T02:48:28.146Z,24.90
2022-08-17T02:50:57.986Z,28.05
2022-08-17T02:53:24.460Z,27.05
2022-08-17T02:55:52.695Z,24.20
2022-08-17T02:58:34.389Z,26.30
2022-08-17T03:01:04.785Z,24.05
2022-08-17T03:03:31.487Z,24.23
2022-08-17T03:05:57.971Z,24.55
2022-08-17T03:08:25.497Z,24.25
2022-08-17T03:10:52.230Z,24.20
2022-08-17T03:13:18.937Z,22.63
2022-08-17T03:15:47.182Z,22.92
2022-08-17T03:18:25.026Z,24.38
2022-08-17T03:20:57.534Z,21.92
2022-08-17T03:23:25.543Z,20.93
2022-08-17T03:25:53.519Z,22.30
2022-08-17T03:28:21.133Z,18.83
2022-08-17T03:30:47.664Z,20.98
2022-08-17T03:33:14.172Z,18.50
2022-08-17T03:35:41.800Z,21.57
2022-08-17T03:38:10.507Z,20.77
2022-08-17T03:40:57.891Z,18.77
2022-08-17T03:43:25.815Z,19.75
2022-08-17T03:46:20.735Z,18.48
2022-08-17T03:49:15.617Z,18.60
2022-08-17T03:52:00.490Z,19.42
2022-08-17T03:54:45.345Z,23.23
2022-08-17T03:57:12.600Z,17.77
2022-08-17T03:59:41.122Z,18.90
2022-08-17T04:02:20.725Z,17.73
2022-08-17T04:04:50.927Z,18.05
2022-08-17T04:07:19.522Z,16.10
2022-08-17T04:09:46.111Z,17.02
2022-08-17T04:12:16.094Z,16.67
2022-08-17T04:14:53.365Z,18.37
2022-08-17T04:17:26.847Z,15.00
2022-08-17T04:22:31.938Z,14.40
2022-08-17T04:25:13.651Z,16.98
2022-08-17T04:27:40.130Z,18.27
2022-08-17T04:30:07.465Z,15.07
2022-08-17T04:33:19.221Z,14.80
2022-08-17T04:35:47.135Z,16.92
2022-08-17T04:38:17.680Z,19.02
2022-08-17T04:41:03.704Z,18.83
2022-08-17T04:43:33.151Z,19.77
2022-08-17T04:46:05.919Z,17.30
2022-08-17T04:48:38.655Z,19.52
2022-08-17T04:51:13.203Z,22.17
2022-08-17T04:53:42.769Z,20.30
2022-08-17T04:56:11.675Z,22.02
2022-08-17T04:58:44.655Z,25.20
2022-08-17T05:01:11.389Z,24.55
2022-08-17T05:03:38.414Z,23.70
2022-08-17T05:06:05.388Z,22.33
2022-08-17T05:08:31.861Z,19.45
2022-08-17T05:10:58.395Z,22.42
2022-08-17T05:13:27.276Z,21.48
2022-08-17T05:15:57.075Z,19.98
2022-08-17T05:18:24.748Z,20.10
2022-08-17T05:20:52.459Z,20.88
2022-08-17T05:23:22.152Z,18.55
2022-08-17T05:25:51.742Z,22.10
2022-08-17T05:28:27.330Z,19.13
2022-08-17T05:30:56.536Z,21.27
2022-08-17T05:33:26.685Z,16.98
2022-08-17T05:35:55.391Z,18.40
2022-08-17T05:38:24.353Z,13.68
2022-08-17T05:40:51.374Z,13.88
2022-08-17T05:43:21.297Z,12.40
2022-08-17T05:46:23.315Z,11.68
2022-08-17T05:48:53.568Z,10.77
2022-08-17T05:51:40.238Z,11.27
2022-08-17T05:54:20.154Z,9.45
2022-08-17T05:56:54.546Z,10.00
2022-08-17T05:59:35.528Z,9.52
2022-08-17T06:02:47.641Z,7.95
2022-08-17T06:05:37.903Z,7.35
2022-08-17T06:08:19.381Z,9.68
2022-08-17T06:10:53.188Z,8.47
2022-08-17T06:13:54.315Z,8.50
2022-08-17T06:16:32.994Z,8.27
2022-08-17T06:19:11.058Z,9.30
2022-08-17T06:21:42.637Z,8.38
2022-08-17T06:24:34.215Z,10.00
2022-08-17T06:27:09.688Z,10.77
2022-08-17T06:29:50.637Z,10.35
2022-08-17T06:32:17.286Z,10.40
2022-08-17T06:34:45.821Z,12.32
2022-08-17T06:37:27.297Z,10.87
2022-08-17T06:39:59.800Z,12.48
2022-08-17T06:43:06.042Z,11.02
2022-08-17T06:46:01.699Z,11.95
2022-08-17T06:48:46.937Z,14.77
2022-08-17T06:51:23.838Z,13.00
2022-08-17T06:54:02.696Z,12.50
2022-08-17T06:56:54.144Z,15.45
2022-08-17T06:59:54.912Z,13.23
2022-08-17T07:02:53.223Z,15.45
2022-08-17T07:05:23.628Z,14.07
2022-08-17T07:10:20.645Z,13.77
2022-08-17T07:12:50.096Z,15.15
2022-08-17T07:15:23.234Z,16.40
2022-08-17T07:17:49.911Z,16.20
2022-08-17T07:20:23.069Z,14.40
2022-08-17T07:23:04.584Z,16.92
2022-08-17T07:25:31.119Z,13.23
2022-08-17T07:28:02.377Z,16.80
2022-08-17T07:30:47.016Z,15.30
2022-08-17T07:33:20.044Z,15.70
2022-08-17T07:35:48.381Z,15.57
2022-08-17T07:38:25.416Z,16.30
2022-08-17T07:41:06.101Z,17.85
2022-08-17T07:43:41.810Z,18.30
2022-08-17T07:46:30.173Z,19.98
2022-08-17T07:49:03.116Z,21.25
2022-08-17T07:51:31.305Z,18.52
2022-08-17T07:54:22.520Z,18.40
2022-08-17T07:56:53.565Z,20.90
2022-08-17T07:59:28.043Z,18.85
2022-08-17T08:01:58.880Z,19.40
2022-08-17T08:07:17.657Z,20.50
2022-08-17T08:09:59.357Z,22.87
2022-08-17T08:12:34.004Z,20.13
2022-08-17T08:15:34.209Z,20.35
2022-08-17T08:18:03.916Z,18.35
2022-08-17T08:20:51.896Z,18.88
2022-08-17T08:23:34.490Z,13.37
2022-08-17T08:26:04.150Z,14.38
2022-08-17T08:28:35.902Z,11.93
2022-08-17T08:31:25.387Z,12.55
2022-08-17T08:34:53.395Z,11.60
2022-08-17T08:37:25.148Z,11.20
2022-08-17T08:40:11.008Z,9.70
2022-08-17T08:43:10.094Z,9.70
2022-08-17T08:45:50.653Z,10.65
2022-08-17T08:48:53.808Z,10.48
2022-08-17T08:51:23.717Z,9.10
2022-08-17T08:54:03.304Z,13.45
2022-08-17T08:57:11.547Z,9.63
2022-08-17T08:59:42.162Z,10.43
2022-08-17T09:02:29.379Z,12.20
2022-08-17T09:05:15.537Z,11.70
2022-08-17T09:07:48.332Z,10.55
2022-08-17T09:10:52.486Z,10.02
2022-08-17T09:13:35.143Z,9.45
2022-08-17T09:16:20.243Z,7.72
2022-08-17T09:19:00.389Z,10.30
2022-08-17T09:21:47.880Z,8.73
2022-08-17T09:24:54.637Z,10.63
2022-08-17T09:27:28.185Z,9.77
2022-08-17T09:30:00.836Z,12.93
2022-08-17T09:32:42.638Z,9.43
2022-08-17T09:35:16.231Z,11.40
2022-08-17T09:37:56.293Z,9.70
2022-08-17T09:40:30.488Z,10.35
2022-08-17T09:43:06.740Z,13.27
2022-08-17T09:45:51.086Z,14.93
2022-08-17T09:48:30.990Z,15.77
2022-08-17T09:51:11.973Z,14.00
2022-08-17T09:53:39.517Z,15.07
2022-08-17T09:56:17.434Z,17.70
2022-08-17T09:58:56.406Z,14.53
2022-08-17T10:01:39.915Z,12.85
2022-08-17T10:04:29.324Z,13.98
2022-08-17T10:07:42.439Z,14.63
2022-08-17T10:10:21.173Z,13.35
2022-08-17T10:13:01.001Z,14.13
2022-08-17T10:16:01.854Z,14.50
2022-08-17T10:18:33.191Z,11.50
2022-08-17T10:21:24.877Z,14.73
2022-08-17T10:24:21.501Z,11.75
2022-08-17T10:26:56.579Z,13.30
2022-08-17T10:29:44.188Z,11.13
2022-08-17T10:32:40.775Z,14.23
2022-08-17T10:35:13.540Z,11.95
2022-08-17T10:37:42.973Z,12.80
2022-08-17T10:40:34.792Z,13.00
2022-08-17T10:43:25.714Z,12.93
2022-08-17T10:46:27.965Z,11.55
2022-08-17T10:49:18.197Z,12.77
2022-08-17T10:51:52.373Z,12.77
2022-08-17T10:54:24.670Z,11.63
2022-08-17T10:56:57.908Z,13.00
2022-08-17T10:59:36.208Z,13.23
2022-08-17T11:02:15.010Z,16.40
2022-08-17T11:05:01.255Z,13.00
2022-08-17T11:07:43.806Z,13.47
2022-08-17T11:10:32.091Z,13.15
2022-08-17T11:13:30.589Z,15.40
2022-08-17T11:16:13.218Z,14.70
2022-08-17T11:19:10.474Z,15.20
2022-08-17T11:22:02.529Z,14.87
2022-08-17T11:24:43.429Z,15.32
2022-08-17T11:27:24.851Z,17.65
2022-08-17T11:30:05.944Z,17.25
2022-08-17T11:32:37.298Z,16.20
2022-08-17T11:35:21.945Z,18.37
2022-08-17T11:38:19.390Z,17.13
2022-08-17T11:41:14.687Z,21.05
2022-08-17T11:43:59.013Z,24.73
2022-08-17T11:47:30.657Z,33.90
2022-08-17T11:50:48.598Z,24.33
2022-08-17T11:53:39.905Z,24.67
2022-08-17T11:56:06.597Z,26.15
2022-08-17T11:58:37.892Z,25.13
2022-08-17T12:01:13.736Z,27.23
2022-08-17T12:03:55.683Z,25.60
2022-08-17T12:06:43.984Z,27.73
2022-08-17T12:09:13.516Z,29.02
2022-08-17T12:12:01.561Z,24.35
2022-08-17T12:15:08.332Z,26.70
2022-08-17T12:17:41.244Z,27.10
2022-08-17T12:20:14.444Z,28.17
2022-08-17T12:23:04.897Z,28.48
2022-08-17T12:25:46.616Z,29.45
2022-08-17T12:28:32.629Z,31.23
2022-08-17T12:31:20.377Z,27.47
2022-08-17T12:33:48.329Z,31.50
2022-08-17T12:36:18.732Z,31.85
2022-08-17T12:38:53.210Z,33.20
2022-08-17T12:41:34.136Z,28.95
2022-08-17T12:44:23.956Z,30.27
2022-08-17T12:47:02.194Z,27.13
2022-08-17T12:49:37.237Z,27.27
2022-08-17T12:52:25.942Z,31.02
2022-08-17T12:55:02.434Z,28.00
2022-08-17T12:57:56.687Z,30.20
2022-08-17T13:00:32.896Z,29.05
2022-08-17T13:03:15.755Z,26.83
2022-08-17T13:05:55.197Z,30.13
2022-08-17T13:08:27.776Z,27.27
2022-08-17T13:11:02.850Z,29.07
2022-08-17T13:13:33.054Z,28.65
2022-08-17T13:16:09.443Z,29.77
2022-08-17T13:18:40.677Z,33.00
2022-08-17T13:21:22.132Z,32.13
2022-08-17T13:24:11.250Z,30.80
2022-08-17T13:26:45.839Z,34.60
2022-08-17T13:29:26.956Z,32.80
2022-08-17T13:32:12.888Z,32.42
2022-08-17T13:35:12.491Z,34.20
2022-08-17T13:37:35.911Z,36.43
2022-08-17T13:40:11.623Z,34.65
2022-08-17T13:42:52.924Z,35.30
2022-08-17T13:45:36.168Z,31.95
2022-08-17T13:48:16.279Z,35.03
2022-08-17T13:50:52.133Z,38.00
2022-08-17T13:53:20.223Z,35.58
2022-08-17T13:55:58.618Z,35.00
2022-08-17T13:58:34.499Z,32.70
2022-08-17T14:01:35.050Z,36.97
2022-08-17T14:04:08.544Z,31.73
2022-08-17T14:06:59.945Z,33.28
2022-08-17T14:09:37.159Z,34.15
2022-08-17T14:12:09.239Z,30.35
2022-08-17T14:14:36.347Z,36.03
2022-08-17T14:17:04.499Z,31.30
2022-08-17T14:19:30.975Z,33.20
2022-08-17T14:21:59.042Z,31.60
2022-08-17T14:24:31.354Z,35.45
2022-08-17T14:26:59.808Z,30.98
2022-08-17T14:29:28.776Z,30.00
2022-08-17T14:31:56.846Z,34.17
2022-08-17T14:34:24.750Z,33.47
2022-08-17T14:36:52.283Z,31.05
2022-08-17T14:39:19.440Z,32.22
2022-08-17T14:41:46.301Z,27.10
2022-08-17T14:44:13.294Z,27.85
2022-08-17T14:46:41.831Z,29.77
2022-08-17T14:49:11.805Z,30.02
2022-08-17T14:51:43.606Z,33.58
2022-08-17T14:54:34.169Z,29.70
2022-08-17T14:57:23.262Z,30.90
2022-08-17T14:59:45.577Z,30.00
2022-08-17T15:02:13.180Z,26.35
2022-08-17T15:04:44.862Z,29.63
2022-08-17T15:07:11.985Z,30.43
2022-08-17T15:09:39.025Z,29.88
2022-08-17T15:12:06.610Z,30.55
2022-08-17T15:14:35.055Z,30.23
2022-08-17T15:17:02.795Z,34.78
2022-08-17T15:19:29.282Z,31.53
2022-08-17T15:21:55.856Z,29.02
2022-08-17T15:24:22.342Z,28.35
2022-08-17T15:26:48.795Z,30.25
2022-08-17T15:29:15.273Z,28.65
2022-08-17T15:31:41.888Z,25.27
2022-08-17T15:34:08.419Z,26.77
2022-08-17T15:36:35.881Z,28.08
2022-08-17T15:39:03.110Z,25.73
2022-08-17T15:41:29.697Z,25.38
2022-08-17T15:43:56.452Z,27.30
2022-08-17T15:46:25.583Z,25.83
2022-08-17T15:48:58.201Z,25.25
2022-08-17T15:51:34.018Z,25.20
2022-08-17T15:54:04.221Z,24.77
2022-08-17T15:56:41.434Z,22.00
2022-08-17T15:59:08.258Z,23.92
2022-08-17T16:03:01.492Z,22.25
2022-08-17T16:04:30.213Z,21.80
2022-08-17T16:06:57.920Z,18.80
2022-08-17T16:09:24.378Z,21.57
2022-08-17T16:11:53.886Z,19.52
2022-08-17T16:14:22.364Z,18.55
2022-08-17T16:16:50.502Z,17.20
2022-08-17T16:19:17.097Z,21.17
2022-08-17T16:21:43.541Z,17.57
2022-08-17T16:24:12.872Z,19.77
2022-08-17T16:26:41.355Z,17.60
2022-08-17T16:29:08.367Z,18.20
2022-08-17T16:31:36.162Z,18.25
2022-08-17T16:34:17.045Z,19.30
2022-08-17T16:36:55.166Z,20.08
2022-08-17T16:39:27.226Z,18.73
2022-08-17T16:41:54.111Z,20.17
2022-08-17T16:44:21.716Z,21.20
2022-08-17T16:46:49.025Z,20.83
2022-08-17T16:49:35.315Z,20.20
2022-08-17T16:52:06.045Z,20.42
2022-08-17T16:54:32.669Z,23.38
2022-08-17T16:56:59.139Z,23.67
2022-08-17T16:59:35.756Z,22.60
2022-08-17T17:02:10.906Z,22.65
2022-08-17T17:04:55.058Z,26.13
2022-08-17T17:07:44.055Z,26.10
2022-08-17T17:10:15.570Z,25.23
2022-08-17T17:13:03.866Z,27.00
2022-08-17T17:15:42.937Z,27.15
2022-08-17T17:18:12.690Z,27.20
2022-08-17T17:20:47.793Z,26.30
2022-08-17T17:23:41.154Z,27.15
2022-08-17T17:26:24.621Z,25.20
2022-08-17T17:28:54.034Z,24.95
2022-08-17T17:31:23.842Z,25.20
2022-08-17T17:33:55.694Z,25.80
2022-08-17T17:36:39.962Z,29.25
2022-08-17T17:39:23.461Z,25.93
2022-08-17T17:41:58.463Z,25.70
2022-08-17T17:44:29.747Z,26.30
2022-08-17T17:47:00.632Z,25.17
2022-08-17T17:49:30.954Z,29.42
2022-08-17T17:52:37.820Z,27.33
2022-08-17T17:55:26.126Z,29.15
2022-08-17T17:57:58.748Z,28.20
2022-08-17T18:00:34.138Z,28.38
2022-08-17T18:03:24.411Z,33.53
2022-08-17T18:05:57.022Z,30.40
2022-08-17T18:08:32.415Z,32.30
2022-08-17T18:11:26.774Z,33.45
2022-08-17T18:14:04.628Z,32.63
2022-08-17T18:16:32.910Z,32.05
2022-08-17T18:19:00.318Z,29.70
2022-08-17T18:21:39.564Z,30.23
2022-08-17T18:24:08.615Z,31.52
2022-08-17T18:26:45.010Z,29.33
2022-08-17T18:29:31.353Z,31.08
2022-08-17T18:32:32.358Z,31.17
2022-08-17T18:35:28.316Z,29.70
2022-08-17T18:38:22.213Z,31.42
2022-08-17T18:40:59.327Z,35.25
2022-08-17T18:43:43.881Z,34.83
2022-08-17T18:46:29.151Z,38.73
2022-08-17T18:49:06.829Z,40.33
2022-08-17T18:51:41.780Z,39.83
2022-08-17T18:54:14.384Z,41.58
2022-08-17T18:57:02.205Z,48.35
2022-08-17T18:59:42.365Z,39.27
2022-08-17T19:02:20.673Z,40.58
2022-08-17T19:04:55.910Z,40.85
2022-08-17T19:07:23.137Z,39.95
2022-08-17T19:10:06.829Z,42.00
2022-08-17T19:12:43.101Z,40.63
2022-08-17T19:15:12.658Z,38.75
2022-08-17T19:17:53.970Z,43.47
2022-08-17T19:20:31.576Z,40.20
2022-08-17T19:23:13.686Z,45.92
2022-08-17T19:25:48.629Z,36.27
2022-08-17T19:28:30.005Z,36.38
2022-08-17T19:30:59.542Z,38.75
2022-08-17T19:33:27.239Z,41.33
2022-08-17T19:36:12.850Z,38.28
2022-08-17T19:38:52.999Z,39.53
2022-08-17T19:41:30.136Z,37.60
2022-08-17T19:44:02.574Z,38.65
2022-08-17T19:46:42.977Z,40.10
2022-08-17T19:49:33.766Z,38.20
2022-08-17T19:52:40.241Z,35.77
2022-08-17T19:55:20.606Z,36.85
2022-08-17T19:58:08.359Z,38.13
2022-08-17T20:00:41.859Z,41.28
2022-08-17T20:03:16.658Z,38.13
2022-08-17T20:06:14.231Z,38.50
2022-08-17T20:08:53.387Z,35.88
2022-08-17T20:11:26.603Z,42.28
2022-08-17T20:14:03.342Z,37.05
2022-08-17T20:16:32.425Z,34.35
2022-08-17T20:19:03.577Z,33.23
2022-08-17T20:21:49.924Z,35.25
2022-08-17T20:24:39.348Z,35.60
2022-08-17T20:27:32.122Z,32.90
2022-08-17T20:30:00.941Z,34.45
2022-08-17T20:32:31.196Z,33.87
2022-08-17T20:35:19.792Z,32.95
2022-08-17T20:38:02.168Z,32.75
2022-08-17T20:41:00.322Z,31.30
2022-08-17T20:43:29.780Z,33.25
2022-08-17T20:46:06.371Z,33.33
2022-08-17T20:48:46.758Z,36.03
2022-08-17T20:51:22.862Z,32.25
2022-08-17T20:53:49.351Z,34.47
2022-08-17T20:56:43.664Z,32.33
2022-08-17T20:59:24.030Z,30.53
2022-08-17T21:02:07.996Z,30.83
2022-08-17T21:04:43.938Z,29.63
2022-08-17T21:07:30.091Z,32.25
2022-08-17T21:10:11.630Z,29.90
2022-08-17T21:12:39.969Z,26.83
2022-08-17T21:15:20.529Z,27.85
2022-08-17T21:17:58.966Z,30.30
2022-08-17T21:20:43.793Z,29.65
2022-08-17T21:23:20.394Z,31.17
2022-08-17T21:26:09.919Z,25.40
2022-08-17T21:29:29.759Z,25.95
2022-08-17T21:32:05.322Z,28.65
2022-08-17T21:34:35.949Z,29.48
2022-08-17T21:37:20.564Z,26.35
2022-08-17T21:39:52.740Z,29.60
2022-08-17T21:42:32.219Z,26.67
2022-08-17T21:45:25.422Z,26.00
2022-08-17T21:48:15.192Z,23.58
2022-08-17T21:50:46.108Z,25.58
2022-08-17T21:53:33.709Z,23.73
2022-08-17T21:56:00.858Z,25.70
2022-08-17T21:58:31.998Z,20.23
2022-08-17T22:01:22.217Z,24.42
2022-08-17T22:04:18.184Z,20.48
2022-08-17T22:06:57.419Z,24.57
2022-08-17T22:09:42.928Z,21.98
2022-08-17T22:12:19.292Z,27.33
2022-08-17T22:14:58.129Z,21.38
2022-08-17T22:17:35.530Z,21.65
2022-08-17T22:20:06.080Z,20.40
2022-08-17T22:23:00.264Z,21.40
2022-08-17T22:25:28.294Z,22.02
2022-08-17T22:27:55.502Z,21.23
2022-08-17T22:30:39.957Z,21.45
2022-08-17T22:33:42.690Z,19.03
2022-08-17T22:36:11.990Z,17.70
2022-08-17T22:38:40.596Z,19.02
2022-08-17T22:41:39.136Z,16.85
2022-08-17T22:44:14.162Z,19.27
2022-08-17T22:47:11.553Z,16.73
2022-08-17T22:49:54.117Z,19.75
2022-08-17T22:53:02.421Z,17.85
2022-08-17T22:55:52.406Z,18.88
2022-08-17T22:58:41.804Z,18.92
2022-08-17T23:01:25.911Z,17.83
2022-08-17T23:03:54.991Z,15.57
2022-08-17T23:06:21.548Z,15.65
2022-08-17T23:08:54.579Z,18.65
2022-08-17T23:11:36.740Z,17.35
2022-08-17T23:14:15.589Z,18.40
2022-08-17T23:16:42.655Z,18.67
2022-08-17T23:19:15.328Z,18.50
2022-08-17T23:21:48.686Z,16.23
2022-08-17T23:24:22.632Z,16.75
2022-08-17T23:26:49.548Z,19.27
2022-08-17T23:29:16.624Z,17.45
2022-08-17T23:31:43.216Z,17.35
2022-08-17T23:34:12.880Z,18.73
2022-08-17T23:36:39.486Z,17.20
2022-08-17T23:39:07.304Z,16.47
2022-08-17T23:41:38.423Z,21.80
2022-08-17T23:44:06.410Z,17.85
2022-08-17T23:46:34.364Z,17.92
2022-08-17T23:49:01.038Z,18.27
2022-08-17T23:51:37.110Z,17.50
2022-08-17T23:54:14.344Z,20.85
2022-08-17T23:56:46.894Z,20.27
2022-08-17T23:59:22.877Z,21.67
